Rome Ciampino, Italy

8:05 AM CET on October 26, 2014 (GMT +0100)
Ciampino | Change Station
CLOSE
Current Station
Personal Weather Station
Location: Ciampino, LAZIO
Elevation: 348 ft
Nearby Weather Stations

Elev 348 ft 41.81 °N, 12.60 °E | Updated 4 minutes ago

Scattered Clouds
Scattered Clouds
52.7 °F
Feels Like 52.7 °F
N
2.2
Wind Variable Wind from NW
Gusts 3.8 mph

Today
High -- | Low -- °F
--% Chance of Precip.
Yesterday
High -- | Low -- °F
Precip. -- in
6:34 AM 5:12 PM
Waxing Crescent, 6% visible
Pressure 30.12 in
Visibility 6.2 miles
Clouds Few 1600 ft
Scattered Clouds 2500 ft
Dew Point 47 °F
Humidity 81%
Rainfall 0.00 in
Snow Depth Not available.
UV 0 out of 12
Pollen Not available.
Air Quality Not available.
Flu Activity Not available.
METAR LIRA 260645Z 01004KT 9999 FEW016 SCT025 10/07 Q1020

More Conditions Fewer Conditions

Pressure 30.12 in
Visibility 6.2 miles
Clouds Few 1600 ft
Scattered Clouds 2500 ft
Dew Point 47 °F
Humidity 81%
Rainfall 0.00 in
Snow Depth Not available.
UV 0 out of 12
Pollen Not available.
Air Quality Not available.
Flu Activity Not available.
METAR LIRA 260645Z 01004KT 9999 FEW016 SCT025 10/07 Q1020

More Conditions Fewer Conditions

10-Day Weather Forecast

Almanac

Astronomy

Oct. 26, 2014 Rise Set
Actual Time 6:34 AM CET 5:12 PM CET
Civil Twilight 6:05 AM CET 5:40 PM CET
Nautical Twilight 5:33 AM CET 6:13 PM CET
Astronomical Twilight 5:01 AM CET 6:45 PM CET
Moon 8:57 AM CET 7:08 PM CET
Length of Visible Light 11h 34m
Length of Day
10h 37m
Tomorrow will be 2m 33s shorter.
Waxing Crescent, 6% of the Moon is Illuminated
Today
Waxing Crescent
Oct 30
First Quarter
Nov 6
Full
Nov 14
Last Quarter
Nov 22
New

Yesterday's Extremes

Country Highs Country Lows

Community

WunderPhotos

Upload Photos

1,765,115 photos uploaded!

Nearby

Snow Depth

Not available.

Earthquake Activity

City Distance Mag. Time & Date
No recent earthquake activity has been reported nearby.
Minimum magnitude displayed is 2.5.

Coastal Water Temperatures

Place Temperature
No Stations Reporting

Nearby Weather Stations